Time;durP1;ratioP1;P1;durP2;ratioP2;P2;SDS_P1;SDS_P2;PMS_P1;PMS_P2;Temp;Humidity;BMP_temperature;BMP_pressure;BME280_temperature;BME280_humidity;BME280_pressure;Samples;Min_cycle;Max_cycle;Signal;HPM_P1;HPM_P2
2021/03/05 00:00:52;;;;;;;90.85;52.65;;;205.70;1305.60;;;;;;5012867;28;20033;-87
2021/03/05 00:03:18;;;;;;;129.48;71.28;;;205.70;1331.20;;;;;;5012691;28;20129;-89
2021/03/05 00:05:44;;;;;;;155.23;86.20;;;205.70;1382.40;;;;;;5012899;28;20026;-83
2021/03/05 00:08:12;;;;;;;138.35;75.15;;;205.70;1408.00;;;;;;5012847;28;20084;-85
2021/03/05 00:10:40;;;;;;;157.05;78.40;;;205.60;1408.00;;;;;;5012537;28;20470;-81
2021/03/05 00:13:07;;;;;;;124.93;68.45;;;205.40;1408.00;;;;;;5012793;28;20030;-85
2021/03/05 00:15:35;;;;;;;130.35;73.05;;;204.80;1382.40;;;;;;5012931;28;20139;-82
2021/03/05 00:18:01;;;;;;;137.77;77.70;;;205.20;1408.00;;;;;;5012200;28;20026;-83
2021/03/05 00:20:30;;;;;;;135.55;77.47;;;205.20;1382.40;;;;;;5013011;28;20022;-85
2021/03/05 00:22:57;;;;;;;113.07;66.00;;;205.20;1408.00;;;;;;4996961;28;20026;-85
2021/03/05 00:25:23;;;;;;;97.63;58.00;;;205.30;1408.00;;;;;;4998500;28;20033;-83
2021/03/05 00:27:49;;;;;;;106.50;61.25;;;205.20;1382.40;;;;;;5015017;28;20033;-86
2021/03/05 00:30:18;;;;;;;92.32;56.45;;;205.20;1382.40;;;;;;5016188;28;20109;-83
2021/03/05 00:32:45;;;;;;;101.72;57.25;;;205.20;1408.00;;;;;;5015894;28;20125;-84
2021/03/05 00:42:54;;;;;;;115.93;68.38;;;205.10;1408.00;;;;;;4977710;28;20100;-88
2021/03/05 08:11:48;;;;;;;33.30;22.65;;;205.70;1254.40;;;;;;4958382;29;20054;-86
2021/03/05 08:14:25;;;;;;;27.10;18.02;;;230.50;1228.80;;;;;;4938774;29;20445;-83
2021/03/05 08:16:52;;;;;;;28.63;19.63;;;230.60;1254.40;;;;;;4937928;29;20035;-81
2021/03/05 08:19:18;;;;;;;33.78;19.42;;;230.70;1254.40;;;;;;4939651;29;20048;-82
2021/03/05 08:22:02;;;;;;;34.88;21.60;;;230.90;1254.40;;;;;;4944147;29;20051;-79
2021/03/05 08:24:39;;;;;;;46.75;29.17;;;231.00;1254.40;;;;;;4943997;29;20173;-81
2021/03/05 08:27:10;;;;;;;48.22;31.08;;;231.00;1254.40;;;;;;4946747;29;20031;-81
2021/03/05 08:30:14;;;;;;;53.75;29.25;;;231.10;1254.40;;;;;;4945683;29;20042;-82
2021/03/05 08:32:48;;;;;;;38.55;24.38;;;231.20;1254.40;;;;;;4947595;29;20049;-78
2021/03/05 08:35:16;;;;;;;40.92;24.88;;;256.00;1254.40;;;;;;4948653;29;20086;-82
2021/03/05 08:38:04;;;;;;;39.58;25.17;;;256.10;1228.80;;;;;;4946556;29;20031;-82
2021/03/05 08:40:46;;;;;;;32.55;23.02;;;256.30;1203.20;;;;;;4948270;28;20032;-78
2021/03/05 08:43:19;;;;;;;29.55;18.35;;;256.50;1177.60;;;;;;4982505;28;20480;-86
2021/03/05 08:45:45;;;;;;;27.20;18.05;;;256.80;1177.60;;;;;;4980144;28;20057;-89
2021/03/05 08:48:16;;;;;;;28.35;18.52;;;256.90;1126.40;;;;;;4981297;28;20468;-85
2021/03/05 08:50:43;;;;;;;67.53;33.28;;;281.70;1177.60;;;;;;4979423;28;20027;-83
2021/03/05 08:53:12;;;;;;;38.63;25.20;;;281.80;1177.60;;;;;;4979749;28;20034;-82
2021/03/05 08:55:40;;;;;;;39.72;23.83;;;281.90;1152.00;;;;;;4979368;28;20596;-81
2021/03/05 08:58:06;;;;;;;29.02;18.17;;;282.10;1152.00;;;;;;4980171;28;20467;-86
2021/03/05 09:00:35;;;;;;;36.60;26.42;;;282.20;1075.20;;;;;;4988568;28;20056;-87
2021/03/05 09:03:11;;;;;;;27.77;19.67;;;282.50;1100.80;;;;;;5016666;28;20054;-89
2021/03/05 09:05:39;;;;;;;34.47;26.52;;;307.20;1075.20;;;;;;4999618;28;20065;-86
2021/03/05 09:08:13;;;;;;;30.50;21.48;;;307.20;1075.20;;;;;;4999751;28;20391;-85
2021/03/05 09:10:51;;;;;;;82.20;41.88;;;307.40;1100.80;;;;;;4999509;28;20038;-86
2021/03/05 09:13:21;;;;;;;50.15;30.02;;;307.40;1100.80;;;;;;5000779;28;20085;-83
2021/03/05 09:15:54;;;;;;;33.65;19.33;;;307.40;1126.40;;;;;;5001430;28;20288;-82
2021/03/05 09:18:25;;;;;;;27.10;16.90;;;307.60;1100.80;;;;;;5010196;28;20395;-85
2021/03/05 09:20:52;;;;;;;28.13;16.15;;;307.70;1075.20;;;;;;4992718;28;20022;-85
2021/03/05 09:23:19;;;;;;;40.58;23.55;;;307.80;1049.60;;;;;;4997876;28;20018;-87
2021/03/05 09:25:54;;;;;;;41.15;26.60;;;308.00;1049.60;;;;;;4981437;28;20048;-86
2021/03/05 09:28:23;;;;;;;44.00;28.83;;;307.90;1126.40;;;;;;4999474;28;20032;-87
2021/03/05 09:30:54;;;;;;;54.75;27.08;;;307.90;1075.20;;;;;;5017788;28;20040;-88
2021/03/05 09:33:28;;;;;;;33.80;20.10;;;308.10;1075.20;;;;;;5001399;28;20486;-84
2021/03/05 09:36:11;;;;;;;40.13;20.60;;;333.00;1075.20;;;;;;5002598;28;20037;-84
2021/03/05 09:38:39;;;;;;;32.30;19.05;;;333.00;1100.80;;;;;;4989979;28;20037;-84
2021/03/05 09:41:26;;;;;;;50.33;32.53;;;333.00;1126.40;;;;;;5012093;28;20034;-85
2021/03/05 09:44:00;;;;;;;23.52;15.23;;;333.20;1075.20;;;;;;4984103;28;20490;-85
2021/03/05 09:46:28;;;;;;;28.00;18.58;;;333.20;1049.60;;;;;;5001051;28;20022;-85
2021/03/05 09:48:55;;;;;;;77.50;43.40;;;333.40;1049.60;;;;;;4984606;28;20027;-85
2021/03/05 09:51:22;;;;;;;45.25;27.45;;;333.50;1075.20;;;;;;4985326;28;20030;-85
2021/03/05 09:53:53;;;;;;;103.35;63.35;;;333.60;1024.00;;;;;;4999068;28;20105;-87
2021/03/05 09:56:27;;;;;;;28.85;17.95;;;333.70;1049.60;;;;;;5001255;28;20030;-85
2021/03/05 09:58:54;;;;;;;21.42;12.60;;;358.50;998.40;;;;;;5016415;28;20092;-85
2021/03/05 10:01:20;;;;;;;25.20;15.77;;;358.60;998.40;;;;;;4999542;28;20549;-87
2021/03/05 10:03:57;;;;;;;19.17;14.20;;;358.70;1024.00;;;;;;5000236;28;20034;-87
2021/03/05 10:06:24;;;;;;;16.88;11.77;;;358.70;998.40;;;;;;4999349;28;20030;-85
2021/03/05 10:08:57;;;;;;;21.65;14.32;;;358.80;998.40;;;;;;5000082;28;20450;-84
2021/03/05 10:11:32;;;;;;;15.90;10.38;;;359.00;998.40;;;;;;4999387;28;20033;-85
2021/03/05 10:13:58;;;;;;;19.48;11.18;;;359.10;972.80;;;;;;4999540;28;20029;-85
2021/03/05 10:16:32;;;;;;;18.20;11.70;;;359.10;972.80;;;;;;4998685;28;20361;-85
2021/03/05 10:19:15;;;;;;;25.25;10.85;;;359.10;972.80;;;;;;4999458;28;20030;-86
2021/03/05 10:21:46;;;;;;;18.08;11.15;;;359.10;972.80;;;;;;4999214;28;20026;-82
2021/03/05 10:24:15;;;;;;;16.80;9.63;;;359.20;972.80;;;;;;4998528;28;20018;-84
2021/03/05 10:29:26;;;;;;;14.23;8.93;;;384.20;947.20;;;;;;5016125;28;20036;-84
2021/03/05 10:31:54;;;;;;;11.98;7.63;;;384.60;896.00;;;;;;5015992;28;20026;-80
2021/03/05 10:34:25;;;;;;;15.45;8.05;;;384.60;896.00;;;;;;4998322;28;20026;-81
2021/03/05 10:36:53;;;;;;;24.13;13.13;;;384.60;896.00;;;;;;4997959;28;20040;-84
2021/03/05 10:39:19;;;;;;;19.27;9.23;;;384.60;921.60;;;;;;4998094;28;20038;-80
2021/03/05 10:41:56;;;;;;;13.80;9.45;;;384.60;896.00;;;;;;4998377;28;20072;-86
2021/03/05 10:44:22;;;;;;;24.35;14.38;;;384.80;921.60;;;;;;4993612;28;20360;-84
2021/03/05 10:46:48;;;;;;;21.90;11.95;;;384.90;896.00;;;;;;4979057;28;20037;-85
2021/03/05 10:49:14;;;;;;;17.40;9.93;;;384.90;870.40;;;;;;5000214;28;20383;-86
2021/03/05 10:51:40;;;;;;;18.48;10.52;;;409.80;870.40;;;;;;4992765;28;20030;-87
2021/03/05 10:54:06;;;;;;;19.70;11.75;;;409.80;870.40;;;;;;4990651;28;20029;-86
2021/03/05 10:56:33;;;;;;;16.38;9.82;;;409.90;870.40;;;;;;4996915;28;20033;-86
2021/03/05 10:58:59;;;;;;;21.35;12.00;;;409.90;896.00;;;;;;4994825;28;20034;-84
2021/03/05 11:01:25;;;;;;;14.73;9.27;;;410.00;870.40;;;;;;5001952;28;20050;-82
2021/03/05 11:03:51;;;;;;;20.50;12.38;;;410.10;870.40;;;;;;4995921;28;20018;-88
2021/03/05 11:06:18;;;;;;;23.90;14.23;;;410.40;870.40;;;;;;5012431;28;20026;-86
2021/03/05 11:08:44;;;;;;;20.48;13.77;;;435.20;844.80;;;;;;4993047;28;20026;-84
2021/03/05 11:11:10;;;;;;;21.77;13.68;;;435.30;870.40;;;;;;5011948;28;20052;-85
2021/03/05 11:13:36;;;;;;;20.38;9.38;;;435.30;844.80;;;;;;5013122;28;20057;-85
2021/03/05 11:16:02;;;;;;;35.72;20.35;;;410.50;819.20;;;;;;4995499;28;20097;-87
2021/03/05 11:18:28;;;;;;;71.28;41.13;;;435.30;819.20;;;;;;5013792;28;20093;-85
2021/03/05 11:20:54;;;;;;;25.42;14.07;;;435.30;844.80;;;;;;4996696;28;20117;-85
2021/03/05 11:23:19;;;;;;;19.05;11.93;;;435.40;819.20;;;;;;4994797;28;20026;-86
2021/03/05 11:25:46;;;;;;;24.90;16.75;;;435.70;793.60;;;;;;4990276;28;20037;-85
2021/03/05 11:28:14;;;;;;;20.88;16.50;;;435.90;819.20;;;;;;5018260;28;20029;-82
2021/03/05 11:30:43;;;;;;;23.83;13.80;;;436.10;819.20;;;;;;4997914;28;20104;-83
2021/03/05 11:33:08;;;;;;;14.05;8.68;;;461.60;768.00;;;;;;4992963;28;20138;-85
2021/03/05 11:35:34;;;;;;;19.88;14.90;;;436.10;716.80;;;;;;4993156;28;20480;-85
2021/03/05 11:38:00;;;;;;;12.38;8.18;;;461.10;793.60;;;;;;5010148;28;20042;-85
2021/03/05 11:40:27;;;;;;;14.73;8.50;;;461.20;716.80;;;;;;4992546;28;20022;-82
2021/03/05 11:42:53;;;;;;;10.10;7.88;;;461.40;716.80;;;;;;4994072;28;20129;-82
2021/03/05 11:45:19;;;;;;;29.75;19.95;;;461.70;716.80;;;;;;4995033;28;20587;-84
2021/03/05 11:47:44;;;;;;;14.52;8.10;;;486.60;742.40;;;;;;4995683;28;20060;-81
2021/03/05 11:50:14;;;;;;;17.95;9.75;;;486.70;691.20;;;;;;4997272;28;20485;-82
2021/03/05 11:52:40;;;;;;;17.33;10.02;;;486.80;691.20;;;;;;4996927;28;20037;-85
2021/03/05 11:55:07;;;;;;;12.55;8.25;;;487.10;716.80;;;;;;4997042;28;20120;-82
2021/03/05 11:57:33;;;;;;;12.60;9.32;;;512.00;691.20;;;;;;4996505;28;20029;-84
2021/03/05 11:59:58;;;;;;;12.00;8.30;;;512.20;691.20;;;;;;4997087;28;20522;-80
2021/03/05 12:02:24;;;;;;;13.98;9.50;;;512.20;691.20;;;;;;5014592;28;20400;-83
2021/03/05 12:04:50;;;;;;;10.90;7.18;;;512.50;716.80;;;;;;4997259;28;20026;-83
2021/03/05 12:07:16;;;;;;;14.45;10.20;;;512.60;665.60;;;;;;4998050;28;20032;-83
2021/03/05 12:09:42;;;;;;;13.95;9.57;;;512.70;691.20;;;;;;5013448;28;20045;-83
2021/03/05 12:12:08;;;;;;;15.95;9.80;;;512.90;691.20;;;;;;5013292;28;20049;-82
2021/03/05 12:14:34;;;;;;;16.42;10.40;;;537.70;691.20;;;;;;4996433;28;20036;-79
2021/03/05 12:16:59;;;;;;;14.13;10.50;;;537.90;716.80;;;;;;4996565;28;20125;-80
2021/03/05 12:19:25;;;;;;;11.65;8.23;;;537.90;716.80;;;;;;5014579;28;20037;-80
2021/03/05 12:21:51;;;;;;;21.23;11.40;;;537.90;691.20;;;;;;5001223;28;20463;-80
2021/03/05 12:24:17;;;;;;;17.83;11.70;;;538.20;691.20;;;;;;5018414;28;20492;-83
2021/03/05 12:26:43;;;;;;;18.80;10.85;;;538.30;716.80;;;;;;5001013;28;20037;-82
2021/03/05 12:29:09;;;;;;;12.43;8.93;;;563.20;716.80;;;;;;5016906;28;20030;-81
2021/03/05 12:31:35;;;;;;;12.75;8.13;;;538.20;665.60;;;;;;5001649;28;20072;-82
2021/03/05 12:34:02;;;;;;;12.55;8.13;;;538.40;665.60;;;;;;5018723;28;20472;-83
2021/03/05 12:36:28;;;;;;;12.23;7.72;;;538.00;640.00;;;;;;5000430;28;20091;-80
2021/03/05 12:38:55;;;;;;;19.65;9.65;;;538.10;665.60;;;;;;5000400;28;20022;-84
2021/03/05 12:41:20;;;;;;;13.52;9.10;;;563.20;716.80;;;;;;5000031;28;20036;-83
2021/03/05 12:43:46;;;;;;;20.90;14.23;;;563.20;691.20;;;;;;5018240;28;20105;-81
2021/03/05 12:46:12;;;;;;;22.08;14.00;;;563.40;691.20;;;;;;5001378;28;20481;-81
2021/03/05 12:48:38;;;;;;;13.88;8.48;;;563.60;691.20;;;;;;5016277;28;20022;-82
2021/03/05 12:51:04;;;;;;;11.68;7.93;;;563.30;640.00;;;;;;5000459;28;20046;-83
2021/03/05 12:53:30;;;;;;;12.60;8.43;;;563.30;665.60;;;;;;4999277;28;20438;-83
2021/03/05 12:55:56;;;;;;;13.00;9.15;;;563.50;691.20;;;;;;4999688;28;20033;-79
2021/03/05 12:58:22;;;;;;;13.07;9.82;;;563.60;691.20;;;;;;4998971;28;20034;-83
2021/03/05 13:00:48;;;;;;;14.60;10.75;;;563.80;691.20;;;;;;5017649;28;20072;-84
2021/03/05 13:03:13;;;;;;;16.08;10.48;;;563.80;665.60;;;;;;5000033;28;20130;-83
2021/03/05 13:05:39;;;;;;;17.70;12.10;;;564.00;665.60;;;;;;5000281;28;20022;-82
2021/03/05 13:08:06;;;;;;;17.75;12.88;;;564.10;691.20;;;;;;4999936;28;20189;-80
2021/03/05 13:10:31;;;;;;;17.38;11.70;;;564.10;665.60;;;;;;5015690;28;20492;-83
2021/03/05 13:12:57;;;;;;;20.70;14.05;;;564.10;665.60;;;;;;4999348;28;20041;-82
2021/03/05 13:15:23;;;;;;;19.23;12.43;;;564.10;665.60;;;;;;5000762;28;20029;-84
2021/03/05 13:17:49;;;;;;;27.90;13.50;;;564.10;665.60;;;;;;4999351;28;20460;-84
2021/03/05 13:20:16;;;;;;;16.08;10.68;;;564.10;665.60;;;;;;4997813;28;20029;-83
2021/03/05 13:22:42;;;;;;;17.25;11.38;;;564.00;665.60;;;;;;5002203;28;20084;-85
2021/03/05 13:25:11;;;;;;;23.60;19.17;;;564.10;691.20;;;;;;4998573;28;20471;-82
2021/03/05 13:27:37;;;;;;;16.50;13.05;;;564.10;665.60;;;;;;4996521;28;20046;-83
2021/03/05 13:30:04;;;;;;;18.00;12.57;;;564.10;691.20;;;;;;5012943;28;20152;-80
2021/03/05 13:32:29;;;;;;;17.13;11.52;;;564.10;665.60;;;;;;4998280;28;20060;-81
2021/03/05 13:34:55;;;;;;;20.30;13.77;;;564.10;691.20;;;;;;4998382;28;20026;-82
2021/03/05 13:37:21;;;;;;;17.08;11.70;;;564.00;691.20;;;;;;4998282;28;20049;-80
2021/03/05 13:39:47;;;;;;;14.85;11.02;;;564.00;691.20;;;;;;4998846;28;20084;-85
2021/03/05 13:42:12;;;;;;;20.05;13.23;;;564.00;716.80;;;;;;5017033;28;20053;-81
2021/03/05 13:44:38;;;;;;;25.35;17.33;;;563.80;691.20;;;;;;5016447;28;20032;-81
2021/03/05 13:47:04;;;;;;;29.23;19.45;;;563.90;691.20;;;;;;4998998;28;20030;-81
2021/03/05 13:49:30;;;;;;;36.45;22.38;;;564.10;665.60;;;;;;5015967;28;20376;-81
2021/03/05 13:51:57;;;;;;;19.77;14.75;;;564.10;691.20;;;;;;4999206;28;20028;-83
2021/03/05 13:54:23;;;;;;;29.65;21.60;;;564.00;665.60;;;;;;4998378;28;20470;-81
2021/03/05 13:56:49;;;;;;;27.02;19.70;;;564.00;665.60;;;;;;5014831;28;20042;-84
2021/03/05 13:59:15;;;;;;;27.80;18.80;;;564.10;665.60;;;;;;4996118;28;20049;-83
2021/03/05 14:01:41;;;;;;;27.20;18.10;;;563.90;665.60;;;;;;4993254;28;20131;-80
2021/03/05 14:04:07;;;;;;;17.80;12.02;;;563.80;716.80;;;;;;4996205;28;20499;-82
2021/03/05 14:06:33;;;;;;;18.80;13.40;;;563.50;691.20;;;;;;4997792;28;20030;-82
2021/03/05 14:08:59;;;;;;;28.02;20.10;;;563.40;691.20;;;;;;4994542;28;20070;-82
2021/03/05 14:11:24;;;;;;;30.60;19.35;;;538.50;665.60;;;;;;4995816;28;20116;-80
2021/03/05 14:13:50;;;;;;;29.67;17.38;;;538.50;665.60;;;;;;4996617;28;20030;-82
2021/03/05 14:16:16;;;;;;;24.00;15.82;;;538.40;691.20;;;;;;5004476;28;20026;-81
2021/03/05 14:18:42;;;;;;;32.13;19.67;;;538.30;665.60;;;;;;4993142;28;20029;-80
2021/03/05 14:21:08;;;;;;;30.38;18.60;;;538.20;691.20;;;;;;5006649;28;20081;-82
2021/03/05 14:23:34;;;;;;;27.58;20.70;;;537.90;691.20;;;;;;4996957;28;20038;-80
2021/03/05 14:26:00;;;;;;;31.98;19.30;;;537.80;716.80;;;;;;5009424;28;20471;-83
2021/03/05 14:28:26;;;;;;;32.58;24.27;;;512.90;691.20;;;;;;4994176;28;20026;-79
2021/03/05 14:30:53;;;;;;;31.02;18.85;;;512.90;665.60;;;;;;4992970;28;20029;-78
2021/03/05 14:33:19;;;;;;;29.27;19.63;;;512.70;665.60;;;;;;4992986;28;20177;-82
2021/03/05 14:35:44;;;;;;;34.65;25.13;;;512.50;691.20;;;;;;4994079;28;20026;-82
2021/03/05 14:38:10;;;;;;;53.75;38.80;;;512.20;691.20;;;;;;4993149;28;20045;-82
2021/03/05 14:40:36;;;;;;;72.05;50.28;;;487.10;691.20;;;;;;4993641;28;20041;-83
2021/03/05 14:43:02;;;;;;;51.45;31.42;;;486.90;716.80;;;;;;5009319;28;20026;-78
2021/03/05 14:45:29;;;;;;;86.13;57.50;;;486.60;716.80;;;;;;4993089;28;20068;-81
2021/03/05 14:47:55;;;;;;;87.13;60.28;;;486.60;716.80;;;;;;4995093;28;20052;-80
2021/03/05 14:50:21;;;;;;;106.78;65.40;;;486.60;716.80;;;;;;4995109;28;20618;-77
2021/03/05 14:52:46;;;;;;;38.20;26.52;;;486.50;742.40;;;;;;4996335;28;20468;-80
2021/03/05 14:55:12;;;;;;;55.60;38.42;;;486.40;742.40;;;;;;4997202;28;20026;-83
2021/03/05 14:57:38;;;;;;;90.57;56.95;;;461.70;742.40;;;;;;5014768;28;20048;-82
2021/03/05 15:00:05;;;;;;;83.45;57.55;;;461.60;742.40;;;;;;5015022;28;20121;-81
2021/03/05 15:02:32;;;;;;;71.53;41.45;;;461.50;742.40;;;;;;4996832;28;20513;-81
2021/03/05 15:04:59;;;;;;;57.33;43.13;;;461.40;768.00;;;;;;5015371;28;20376;-82
2021/03/05 15:07:25;;;;;;;35.58;26.05;;;461.40;768.00;;;;;;5012543;28;20503;-76
2021/03/05 15:09:51;;;;;;;39.20;27.83;;;461.30;742.40;;;;;;5002856;28;20109;-78
2021/03/05 15:12:17;;;;;;;33.55;25.33;;;461.20;768.00;;;;;;5011744;28;20018;-79
2021/03/05 15:14:44;;;;;;;33.08;23.50;;;461.10;768.00;;;;;;5011022;28;20089;-79
2021/03/05 15:17:10;;;;;;;25.10;16.70;;;461.00;768.00;;;;;;4995601;28;20535;-79
2021/03/05 15:19:36;;;;;;;22.52;15.63;;;460.90;768.00;;;;;;4994478;28;20057;-81
2021/03/05 15:22:02;;;;;;;20.02;14.27;;;460.90;768.00;;;;;;5011452;28;20022;-79
2021/03/05 15:24:28;;;;;;;22.85;14.85;;;460.80;768.00;;;;;;5009174;28;20026;-82
2021/03/05 15:26:54;;;;;;;26.95;17.33;;;460.80;768.00;;;;;;5011347;28;20438;-80
2021/03/05 15:29:20;;;;;;;33.05;20.65;;;436.10;768.00;;;;;;5012185;28;20106;-80
2021/03/05 15:31:46;;;;;;;68.28;43.67;;;436.00;768.00;;;;;;4995139;28;20104;-81
2021/03/05 15:34:11;;;;;;;55.13;34.67;;;435.90;793.60;;;;;;5013705;28;20030;-82
2021/03/05 15:36:37;;;;;;;34.60;25.50;;;435.80;793.60;;;;;;4996247;28;20045;-81
2021/03/05 15:39:03;;;;;;;44.67;31.42;;;435.70;793.60;;;;;;4995872;28;20033;-81
2021/03/05 15:41:29;;;;;;;48.40;32.65;;;435.60;819.20;;;;;;5013719;28;20053;-80
2021/03/05 15:43:55;;;;;;;53.60;38.08;;;435.60;819.20;;;;;;4996012;28;20479;-81
2021/03/05 15:46:20;;;;;;;54.63;38.10;;;435.50;844.80;;;;;;5013165;28;20049;-82
2021/03/05 15:48:46;;;;;;;71.15;48.15;;;435.50;844.80;;;;;;5012238;28;20085;-83
2021/03/05 15:51:12;;;;;;;67.13;49.13;;;435.40;844.80;;;;;;5011979;28;20498;-83
2021/03/05 15:53:41;;;;;;;85.72;60.97;;;435.30;844.80;;;;;;5013421;28;20100;-84
2021/03/05 15:56:07;;;;;;;137.63;89.35;;;435.20;896.00;;;;;;5011927;28;20506;-80
2021/03/05 15:58:33;;;;;;;148.52;97.10;;;435.20;870.40;;;;;;4995610;28;20538;-82
2021/03/05 16:00:59;;;;;;;182.20;116.60;;;410.40;844.80;;;;;;5011921;28;20058;-82
2021/03/05 16:03:24;;;;;;;157.15;116.03;;;410.30;844.80;;;;;;5013685;28;20080;-84
2021/03/05 16:05:50;;;;;;;140.70;97.53;;;410.20;870.40;;;;;;4996011;28;20026;-79
2021/03/05 16:08:17;;;;;;;114.10;74.57;;;410.20;896.00;;;;;;5013327;28;20113;-80
2021/03/05 16:10:43;;;;;;;68.28;47.47;;;410.20;896.00;;;;;;5013180;28;20053;-80
2021/03/05 16:13:09;;;;;;;62.80;45.00;;;410.20;870.40;;;;;;4996435;28;20483;-77
2021/03/05 16:15:34;;;;;;;56.88;37.70;;;410.10;896.00;;;;;;5009181;28;20026;-81
2021/03/05 16:18:00;;;;;;;85.53;55.85;;;410.00;896.00;;;;;;4983538;28;20038;-77
2021/03/05 16:20:27;;;;;;;85.90;60.45;;;410.00;921.60;;;;;;5008842;28;20399;-82
2021/03/05 16:22:53;;;;;;;89.78;57.08;;;409.90;896.00;;;;;;4994154;28;20113;-83
2021/03/05 16:25:19;;;;;;;131.95;94.57;;;409.80;921.60;;;;;;5011492;28;20477;-78
2021/03/05 16:27:47;;;;;;;134.30;93.30;;;409.70;947.20;;;;;;4995814;28;20038;-79
2021/03/05 16:30:13;;;;;;;121.95;82.15;;;384.90;921.60;;;;;;4996122;28;20022;-83
2021/03/05 16:32:39;;;;;;;97.82;71.95;;;384.90;921.60;;;;;;4996074;28;20379;-81
2021/03/05 16:35:05;;;;;;;97.40;65.30;;;384.90;896.00;;;;;;5022973;28;20025;-81
2021/03/05 16:37:31;;;;;;;94.70;67.53;;;384.90;921.60;;;;;;5014653;28;20049;-79
2021/03/05 16:39:56;;;;;;;108.63;76.30;;;384.80;947.20;;;;;;5012183;28;20029;-80
2021/03/05 16:42:22;;;;;;;107.13;79.70;;;384.60;921.60;;;;;;5028742;28;20036;-80
2021/03/05 16:44:48;;;;;;;105.03;79.53;;;384.60;947.20;;;;;;5007744;28;20030;-79
2021/03/05 16:47:14;;;;;;;111.88;82.85;;;384.40;972.80;;;;;;5029407;28;20034;-80
2021/03/05 16:49:39;;;;;;;106.35;77.03;;;384.40;972.80;;;;;;5013153;28;20115;-81
2021/03/05 16:52:06;;;;;;;114.55;77.55;;;384.20;998.40;;;;;;5016354;28;20017;-80
2021/03/05 16:54:32;;;;;;;95.32;63.42;;;384.20;998.40;;;;;;5015136;28;20026;-79
2021/03/05 16:56:58;;;;;;;149.18;110.68;;;384.10;998.40;;;;;;5011573;28;20030;-82
2021/03/05 16:59:24;;;;;;;117.07;84.10;;;384.00;1024.00;;;;;;5024224;28;20037;-81
2021/03/05 17:01:50;;;;;;;92.45;69.40;;;359.30;1024.00;;;;;;5013300;28;20032;-81
2021/03/05 17:04:17;;;;;;;131.05;89.70;;;359.20;1049.60;;;;;;5009602;28;20030;-80
2021/03/05 17:06:42;;;;;;;195.18;141.43;;;359.10;1049.60;;;;;;5003799;28;20100;-82
2021/03/05 17:09:08;;;;;;;204.52;152.45;;;359.10;1024.00;;;;;;5008257;28;20026;-80
2021/03/05 17:11:34;;;;;;;170.82;124.07;;;359.00;1024.00;;;;;;5009729;28;20087;-80
2021/03/05 17:14:00;;;;;;;189.50;128.85;;;358.90;1024.00;;;;;;5028041;28;20053;-79
2021/03/05 17:16:27;;;;;;;195.18;133.57;;;359.00;1049.60;;;;;;5012515;28;20037;-82
2021/03/05 17:18:54;;;;;;;178.48;123.63;;;358.90;1024.00;;;;;;5023747;28;20108;-77
2021/03/05 17:21:19;;;;;;;169.50;121.22;;;358.90;1024.00;;;;;;5014429;28;20022;-77
2021/03/05 17:23:45;;;;;;;156.95;106.20;;;358.90;1024.00;;;;;;5013037;28;20614;-80
2021/03/05 17:26:11;;;;;;;152.13;103.50;;;358.90;1024.00;;;;;;5013633;28;20544;-78
2021/03/05 17:28:37;;;;;;;134.13;94.57;;;358.90;1024.00;;;;;;5015004;28;20049;-79
2021/03/05 17:31:04;;;;;;;100.20;70.28;;;358.90;1024.00;;;;;;4996963;28;20438;-78
2021/03/05 17:33:30;;;;;;;98.55;63.50;;;358.80;1049.60;;;;;;4995507;28;20053;-83
2021/03/05 17:35:56;;;;;;;105.10;66.22;;;358.70;1049.60;;;;;;5015363;28;20061;-77
2021/03/05 17:38:22;;;;;;;119.57;76.00;;;358.60;1049.60;;;;;;4996576;28;20038;-82
2021/03/05 17:40:48;;;;;;;127.82;78.65;;;358.50;1075.20;;;;;;4998556;28;20368;-80
2021/03/05 17:43:15;;;;;;;110.82;70.55;;;358.40;1075.20;;;;;;5015616;28;20025;-80
2021/03/05 17:45:41;;;;;;;92.30;59.90;;;358.40;1075.20;;;;;;4999096;28;20065;-80
2021/03/05 17:48:07;;;;;;;52.88;39.28;;;333.70;1075.20;;;;;;5014694;28;20022;-83
2021/03/05 17:50:33;;;;;;;57.65;40.95;;;358.40;1049.60;;;;;;4995548;28;20080;-83
2021/03/05 17:52:58;;;;;;;72.78;45.75;;;333.60;1100.80;;;;;;4997739;28;20422;-79
2021/03/05 17:55:25;;;;;;;66.60;44.55;;;333.60;1100.80;;;;;;4998064;28;20022;-79
2021/03/05 17:57:51;;;;;;;71.80;47.70;;;333.50;1100.80;;;;;;4997617;28;20030;-85
2021/03/05 18:00:18;;;;;;;79.35;51.95;;;333.40;1126.40;;;;;;4997112;28;20046;-84
2021/03/05 18:02:44;;;;;;;88.03;53.40;;;333.30;1126.40;;;;;;4997216;28;20030;-83
2021/03/05 18:05:10;;;;;;;96.82;61.67;;;333.30;1126.40;;;;;;5015717;28;20022;-82
2021/03/05 18:07:36;;;;;;;83.40;55.03;;;333.10;1126.40;;;;;;4998122;28;20112;-78
2021/03/05 18:10:02;;;;;;;72.93;47.40;;;333.10;1126.40;;;;;;4999588;28;20502;-81
2021/03/05 18:12:28;;;;;;;89.40;55.35;;;333.10;1126.40;;;;;;5016027;28;20510;-81
2021/03/05 18:14:54;;;;;;;76.13;48.50;;;332.90;1126.40;;;;;;4997369;28;20033;-81
2021/03/05 18:17:19;;;;;;;57.42;39.50;;;332.90;1126.40;;;;;;4993533;28;20049;-82
2021/03/05 18:19:47;;;;;;;43.78;31.05;;;333.00;1152.00;;;;;;4993962;28;20033;-80
2021/03/05 18:22:13;;;;;;;35.53;23.83;;;332.90;1152.00;;;;;;4996719;28;20120;-82
2021/03/05 18:24:39;;;;;;;42.30;26.35;;;333.10;1126.40;;;;;;5010525;28;20116;-82
2021/03/05 18:27:06;;;;;;;53.20;34.28;;;332.90;1152.00;;;;;;4992805;28;20025;-82
2021/03/05 18:29:32;;;;;;;38.50;28.42;;;332.90;1152.00;;;;;;4994603;28;20058;-79
2021/03/05 18:31:58;;;;;;;31.15;21.40;;;333.00;1100.80;;;;;;4995631;28;20064;-82
2021/03/05 18:34:24;;;;;;;32.90;24.55;;;333.20;1100.80;;;;;;4995929;28;20036;-83
2021/03/05 18:36:49;;;;;;;28.73;21.83;;;333.20;1126.40;;;;;;4997183;28;20514;-81
2021/03/05 18:39:16;;;;;;;33.20;23.10;;;333.20;1100.80;;;;;;4994581;28;20053;-82
2021/03/05 18:41:42;;;;;;;30.13;21.23;;;333.30;1100.80;;;;;;4995294;28;20045;-83
2021/03/05 18:44:08;;;;;;;33.42;21.77;;;333.30;1100.80;;;;;;4997836;28;20022;-83
2021/03/05 18:46:35;;;;;;;29.52;20.23;;;333.20;1126.40;;;;;;5014699;28;20375;-81
2021/03/05 18:49:01;;;;;;;21.67;14.32;;;333.30;1126.40;;;;;;4998435;28;20022;-80
2021/03/05 18:51:27;;;;;;;29.85;20.65;;;333.30;1126.40;;;;;;4998496;28;20456;-85
2021/03/05 18:53:57;;;;;;;36.50;24.85;;;333.30;1126.40;;;;;;4997829;28;20491;-84
2021/03/05 18:56:23;;;;;;;24.77;16.80;;;333.30;1152.00;;;;;;5015780;28;20045;-87
2021/03/05 18:58:49;;;;;;;31.08;23.25;;;333.30;1152.00;;;;;;5015286;28;20036;-84
2021/03/05 19:01:15;;;;;;;34.65;23.63;;;333.30;1177.60;;;;;;4997396;28;20049;-83
2021/03/05 19:03:41;;;;;;;36.88;25.92;;;333.20;1203.20;;;;;;4998211;28;20041;-84
2021/03/05 19:06:07;;;;;;;41.40;28.58;;;333.20;1203.20;;;;;;4997969;28;20468;-84
2021/03/05 19:08:33;;;;;;;53.33;33.20;;;333.20;1228.80;;;;;;4997281;28;20088;-85
2021/03/05 19:10:59;;;;;;;63.70;41.28;;;333.20;1228.80;;;;;;4997642;28;20064;-80
2021/03/05 19:13:25;;;;;;;57.55;36.33;;;333.00;1254.40;;;;;;4998160;28;20080;-83
2021/03/05 19:15:51;;;;;;;42.80;24.67;;;333.10;1280.00;;;;;;5000604;28;20025;-86
2021/03/05 19:18:17;;;;;;;48.35;27.58;;;333.00;1331.20;;;;;;4999177;28;20498;-84
2021/03/05 19:20:43;;;;;;;47.85;30.55;;;333.00;1331.20;;;;;;4998594;28;20121;-84
2021/03/05 19:23:09;;;;;;;38.80;24.35;;;333.10;1331.20;;;;;;4997560;28;20116;-87
2021/03/05 19:25:34;;;;;;;29.35;20.35;;;333.10;1356.80;;;;;;5015203;28;20026;-85
2021/03/05 19:28:00;;;;;;;30.50;21.00;;;333.00;1382.40;;;;;;4997734;28;20145;-80
2021/03/05 19:30:26;;;;;;;28.42;19.52;;;333.00;1382.40;;;;;;4997230;28;20033;-84
2021/03/05 19:32:52;;;;;;;38.50;21.95;;;333.00;1408.00;;;;;;4995259;28;20100;-85
2021/03/05 19:35:18;;;;;;;28.25;18.92;;;333.00;1408.00;;;;;;4992652;28;20029;-83
2021/03/05 19:37:44;;;;;;;29.10;19.85;;;333.00;1408.00;;;;;;4996377;28;20033;-86
2021/03/05 19:40:10;;;;;;;28.80;17.60;;;332.90;1459.20;;;;;;4996103;28;20026;-85